Time;durP1;ratioP1;P1;durP2;ratioP2;P2;SDS_P1;SDS_P2;PMS_P1;PMS_P2;Temp;Humidity;BMP_temperature;BMP_pressure;BME280_temperature;BME280_humidity;BME280_pressure;Samples;Min_cycle;Max_cycle;Signal;HPM_P1;HPM_P2
2023/06/30 00:01:58;;;;;;;9.03;8.13;;;22.40;99.90;;;;;;5051882;28;20166;-61
2023/06/30 00:04:26;;;;;;;8.33;7.53;;;22.40;99.90;;;;;;5052561;28;20593;-61
2023/06/30 00:06:56;;;;;;;7.67;6.97;;;22.30;99.90;;;;;;5042266;28;20167;-61
2023/06/30 00:09:23;;;;;;;7.07;6.47;;;22.30;99.90;;;;;;5032594;28;20452;-61
2023/06/30 00:11:50;;;;;;;7.40;6.77;;;22.20;99.90;;;;;;5031637;28;20474;-61
2023/06/30 00:14:16;;;;;;;7.63;6.73;;;22.20;99.90;;;;;;5032621;28;20408;-61
2023/06/30 00:16:42;;;;;;;7.80;7.20;;;22.20;99.90;;;;;;5031629;28;20503;-61
2023/06/30 00:19:08;;;;;;;5.20;4.80;;;22.10;99.90;;;;;;5049340;28;20947;-61
2023/06/30 00:21:34;;;;;;;7.50;6.70;;;22.10;99.90;;;;;;5052468;28;20172;-61
2023/06/30 00:24:04;;;;;;;6.30;5.80;;;22.00;99.90;;;;;;5051419;28;20633;-61
2023/06/30 00:26:30;;;;;;;6.00;5.40;;;21.90;99.90;;;;;;5034871;28;20738;-62
2023/06/30 00:29:01;;;;;;;5.87;5.30;;;21.90;99.90;;;;;;5045746;28;21080;-61
2023/06/30 00:31:27;;;;;;;4.30;4.03;;;21.80;99.90;;;;;;5032809;28;20443;-61
2023/06/30 00:33:53;;;;;;;6.67;6.17;;;21.70;99.90;;;;;;5031259;28;20410;-61
2023/06/30 00:36:19;;;;;;;4.80;4.50;;;21.60;99.90;;;;;;5035604;28;20421;-61
2023/06/30 00:38:44;;;;;;;5.87;5.07;;;21.50;99.90;;;;;;5032098;28;20217;-61
2023/06/30 00:41:11;;;;;;;6.90;6.30;;;21.50;99.90;;;;;;5031913;28;20170;-61
2023/06/30 00:43:38;;;;;;;6.53;6.07;;;21.40;99.90;;;;;;5031869;28;20423;-61
2023/06/30 00:46:05;;;;;;;5.40;4.60;;;21.40;99.90;;;;;;5031747;28;20435;-61
2023/06/30 00:48:31;;;;;;;4.17;3.97;;;21.30;99.90;;;;;;5032214;28;20847;-61
2023/06/30 00:50:58;;;;;;;4.30;4.00;;;21.30;99.90;;;;;;5044219;28;20474;-61
2023/06/30 00:53:24;;;;;;;6.10;5.53;;;21.20;99.90;;;;;;5041859;28;20417;-61
2023/06/30 00:55:50;;;;;;;4.53;4.30;;;21.20;99.90;;;;;;5013500;28;20439;-61
2023/06/30 00:58:17;;;;;;;5.17;4.77;;;21.20;99.90;;;;;;5050141;28;20412;-61
2023/06/30 01:00:43;;;;;;;6.33;5.73;;;21.10;99.90;;;;;;5036348;28;20216;-61
2023/06/30 01:03:19;;;;;;;4.60;4.30;;;21.10;99.90;;;;;;5032035;28;20428;-61
2023/06/30 01:06:06;;;;;;;6.80;6.20;;;21.10;99.90;;;;;;5050057;28;20913;-61
2023/06/30 01:09:00;;;;;;;4.90;4.50;;;21.10;99.90;;;;;;5038813;28;20551;-61
2023/06/30 01:11:26;;;;;;;4.70;4.30;;;21.00;99.90;;;;;;5032140;28;20408;-61
2023/06/30 01:13:55;;;;;;;4.83;4.40;;;21.00;99.90;;;;;;5031741;28;20440;-61
2023/06/30 01:16:21;;;;;;;5.13;4.73;;;20.90;99.90;;;;;;5051915;28;20428;-61
2023/06/30 01:18:52;;;;;;;4.70;4.40;;;20.90;99.90;;;;;;5035443;28;20900;-61
2023/06/30 01:21:21;;;;;;;5.20;4.77;;;20.90;99.90;;;;;;5031971;28;20737;-62
2023/06/30 01:23:54;;;;;;;6.90;6.30;;;21.00;99.90;;;;;;5031122;28;20483;-61
2023/06/30 01:26:21;;;;;;;5.53;5.13;;;21.00;99.90;;;;;;5031781;28;20392;-62
2023/06/30 01:28:50;;;;;;;5.77;5.37;;;20.90;99.90;;;;;;5030262;28;20460;-61
2023/06/30 01:31:20;;;;;;;6.43;5.83;;;21.00;99.90;;;;;;5036521;28;20416;-61
2023/06/30 01:33:46;;;;;;;6.30;5.53;;;21.00;99.90;;;;;;5034031;28;20879;-61
2023/06/30 01:36:12;;;;;;;6.90;6.30;;;21.00;99.90;;;;;;5035067;28;20508;-61
2023/06/30 01:38:37;;;;;;;10.10;6.80;;;21.10;99.90;;;;;;5034904;28;20461;-61
2023/06/30 01:41:07;;;;;;;5.20;4.80;;;21.10;99.90;;;;;;5035704;28;20813;-61
2023/06/30 01:43:33;;;;;;;5.30;5.00;;;21.10;99.90;;;;;;5040812;28;20202;-61
2023/06/30 01:45:59;;;;;;;6.83;6.23;;;21.10;99.90;;;;;;5040860;28;20439;-61
2023/06/30 01:48:25;;;;;;;4.63;4.33;;;21.10;99.90;;;;;;5040450;28;20936;-62
2023/06/30 01:50:53;;;;;;;4.30;4.00;;;21.10;99.90;;;;;;5050711;28;20465;-61
2023/06/30 01:53:19;;;;;;;4.60;4.30;;;21.00;99.90;;;;;;5050807;28;20571;-62
2023/06/30 01:55:48;;;;;;;5.50;5.00;;;21.00;99.90;;;;;;5033913;28;20432;-61
2023/06/30 01:58:16;;;;;;;7.20;6.60;;;20.90;99.90;;;;;;5034647;28;20178;-61
2023/06/30 02:00:42;;;;;;;5.03;4.63;;;20.90;99.90;;;;;;5038435;28;20424;-61
2023/06/30 02:03:08;;;;;;;4.37;4.17;;;20.80;99.90;;;;;;5034784;28;20398;-61
2023/06/30 02:05:33;;;;;;;4.27;3.97;;;20.80;99.90;;;;;;5035178;28;20198;-62
2023/06/30 02:07:59;;;;;;;3.50;3.30;;;20.80;99.90;;;;;;5015811;28;20261;-61
2023/06/30 02:10:25;;;;;;;4.43;4.13;;;20.70;99.90;;;;;;5034813;28;20226;-61
2023/06/30 02:12:51;;;;;;;4.53;4.23;;;20.60;99.90;;;;;;5048134;28;20576;-61
2023/06/30 02:15:17;;;;;;;4.07;3.77;;;20.60;99.90;;;;;;5043734;28;20173;-62
2023/06/30 02:17:42;;;;;;;3.47;3.37;;;20.50;99.90;;;;;;5052358;28;20415;-61
2023/06/30 02:20:13;;;;;;;5.63;4.33;;;20.40;99.90;;;;;;5045497;28;20228;-61
2023/06/30 02:22:38;;;;;;;5.60;5.20;;;20.40;99.90;;;;;;5034907;28;20158;-61
2023/06/30 02:25:05;;;;;;;4.90;4.60;;;20.30;99.90;;;;;;5042902;28;20953;-61
2023/06/30 02:27:30;;;;;;;4.97;4.63;;;20.30;99.90;;;;;;5054380;28;20184;-62
2023/06/30 02:29:56;;;;;;;5.67;4.87;;;20.20;99.90;;;;;;5050345;28;20455;-62
2023/06/30 02:32:22;;;;;;;5.27;4.97;;;20.20;99.90;;;;;;5052220;28;20257;-61
2023/06/30 02:34:48;;;;;;;4.90;4.70;;;20.20;99.90;;;;;;5053332;28;20475;-61
2023/06/30 02:37:14;;;;;;;5.47;5.07;;;20.20;99.90;;;;;;5036157;28;20466;-62
2023/06/30 02:39:41;;;;;;;5.80;5.37;;;20.20;99.90;;;;;;5054128;28;20271;-61
2023/06/30 02:42:06;;;;;;;6.10;5.60;;;20.10;99.90;;;;;;5052981;28;20227;-61
2023/06/30 02:44:32;;;;;;;5.80;5.30;;;20.10;99.90;;;;;;5046889;28;20853;-61
2023/06/30 02:46:58;;;;;;;6.07;5.57;;;20.10;99.90;;;;;;5033252;28;20170;-61
2023/06/30 02:49:24;;;;;;;7.10;6.30;;;20.10;99.90;;;;;;5033957;28;20198;-61
2023/06/30 02:51:50;;;;;;;7.47;6.80;;;20.10;99.90;;;;;;5032959;28;20188;-61
2023/06/30 02:54:15;;;;;;;7.60;5.70;;;20.00;99.90;;;;;;5033929;28;20398;-61
2023/06/30 02:56:41;;;;;;;6.40;5.87;;;20.00;99.90;;;;;;5034119;28;20209;-61
2023/06/30 02:59:07;;;;;;;6.87;6.37;;;20.00;99.90;;;;;;5039498;28;20278;-61
2023/06/30 03:01:32;;;;;;;6.93;6.43;;;20.10;99.90;;;;;;5053463;28;20541;-62
2023/06/30 03:03:59;;;;;;;7.13;6.57;;;20.10;99.90;;;;;;5048324;28;20178;-61
2023/06/30 03:06:24;;;;;;;8.17;7.57;;;20.10;99.90;;;;;;5033717;28;20307;-61
2023/06/30 03:08:50;;;;;;;6.60;6.10;;;20.10;99.90;;;;;;5032833;28;20560;-61
2023/06/30 03:11:16;;;;;;;6.73;6.33;;;20.10;99.90;;;;;;5041988;28;20182;-61
2023/06/30 03:13:42;;;;;;;7.87;7.30;;;20.10;99.90;;;;;;5053502;28;20307;-61
2023/06/30 03:16:07;;;;;;;8.50;7.80;;;20.10;99.90;;;;;;5052601;28;20170;-61
2023/06/30 03:18:33;;;;;;;8.13;7.53;;;20.00;99.90;;;;;;5051639;28;20185;-61
2023/06/30 03:20:59;;;;;;;8.23;7.63;;;20.00;99.90;;;;;;5052530;28;20648;-61
2023/06/30 03:23:25;;;;;;;8.60;7.97;;;20.00;99.90;;;;;;5051588;28;20671;-62
2023/06/30 03:25:51;;;;;;;8.90;8.30;;;20.00;99.90;;;;;;5032805;28;20197;-61
2023/06/30 03:28:16;;;;;;;10.13;9.03;;;20.10;99.90;;;;;;5033595;28;20448;-61
2023/06/30 03:30:42;;;;;;;10.30;9.13;;;20.10;99.90;;;;;;5039298;28;20569;-62
2023/06/30 03:33:08;;;;;;;9.90;9.07;;;20.10;99.90;;;;;;5038199;28;20459;-61
2023/06/30 03:35:33;;;;;;;9.83;8.90;;;20.00;99.90;;;;;;5033019;28;20174;-62
2023/06/30 03:37:59;;;;;;;9.43;8.77;;;20.00;99.90;;;;;;5031897;28;20170;-61
2023/06/30 03:40:25;;;;;;;9.40;8.70;;;20.00;99.90;;;;;;5033237;28;20292;-61
2023/06/30 03:42:51;;;;;;;8.33;7.60;;;20.00;99.90;;;;;;5032202;28;20420;-61
2023/06/30 03:45:17;;;;;;;9.63;8.73;;;20.00;99.90;;;;;;5034289;28;20189;-62
2023/06/30 03:47:42;;;;;;;12.43;11.57;;;19.90;99.90;;;;;;5032540;28;20170;-61
2023/06/30 03:50:08;;;;;;;8.80;8.13;;;19.80;99.90;;;;;;5031997;28;20253;-61
2023/06/30 03:52:34;;;;;;;12.00;8.43;;;19.80;99.90;;;;;;5032694;28;20177;-61
2023/06/30 03:55:00;;;;;;;9.80;9.00;;;19.80;99.90;;;;;;5034415;28;20411;-61
2023/06/30 03:57:26;;;;;;;9.03;8.27;;;19.80;99.90;;;;;;5034463;28;20466;-62
2023/06/30 03:59:51;;;;;;;10.90;10.10;;;19.80;99.90;;;;;;5045678;28;20185;-60
2023/06/30 04:02:17;;;;;;;9.30;8.50;;;19.90;99.90;;;;;;5052856;28;20166;-61
2023/06/30 04:04:43;;;;;;;10.70;9.60;;;19.90;99.90;;;;;;5052684;28;20618;-61
2023/06/30 04:07:09;;;;;;;12.17;11.07;;;19.80;99.90;;;;;;5052250;28;20176;-61
2023/06/30 04:09:37;;;;;;;13.67;12.37;;;19.80;99.90;;;;;;5034987;28;20251;-61
2023/06/30 04:12:03;;;;;;;15.70;14.10;;;19.80;99.90;;;;;;5051805;28;20209;-61
2023/06/30 04:14:29;;;;;;;15.73;14.27;;;19.80;99.90;;;;;;5032878;28;20825;-61
2023/06/30 04:16:55;;;;;;;13.33;12.00;;;19.80;99.90;;;;;;5051828;28;20491;-60
2023/06/30 04:19:21;;;;;;;14.63;13.13;;;19.80;99.90;;;;;;5034513;28;20173;-60
2023/06/30 04:21:47;;;;;;;14.77;13.07;;;19.70;99.90;;;;;;5034201;28;20228;-61
2023/06/30 04:24:13;;;;;;;16.53;12.63;;;19.70;99.90;;;;;;5036310;28;20301;-61
2023/06/30 04:26:39;;;;;;;12.50;11.43;;;19.70;99.90;;;;;;5032230;28;20786;-63
2023/06/30 04:29:05;;;;;;;13.03;11.73;;;19.70;99.90;;;;;;5038915;28;20557;-63
2023/06/30 04:31:31;;;;;;;12.70;11.60;;;19.70;99.90;;;;;;5052140;28;20400;-63
2023/06/30 04:33:57;;;;;;;14.10;12.70;;;19.70;99.90;;;;;;5049081;28;20186;-62
2023/06/30 04:36:23;;;;;;;13.73;12.53;;;19.70;99.90;;;;;;5034484;28;20253;-62
2023/06/30 04:38:48;;;;;;;13.07;11.67;;;19.70;99.90;;;;;;5031811;28;20263;-62
2023/06/30 04:41:15;;;;;;;13.50;12.13;;;19.70;99.90;;;;;;5031438;28;20641;-62
2023/06/30 04:43:43;;;;;;;13.70;12.60;;;19.60;99.90;;;;;;5032348;28;20185;-62
2023/06/30 04:46:09;;;;;;;13.87;12.67;;;19.60;99.90;;;;;;5031330;28;20416;-62
2023/06/30 04:48:35;;;;;;;13.93;12.50;;;19.70;99.90;;;;;;5032143;28;20444;-63
2023/06/30 04:51:01;;;;;;;13.93;12.53;;;19.70;99.90;;;;;;5031317;28;20412;-62
2023/06/30 04:53:27;;;;;;;12.10;10.90;;;19.70;99.90;;;;;;5032116;28;20507;-62
2023/06/30 04:55:52;;;;;;;14.87;13.70;;;19.70;99.90;;;;;;5031391;28;20175;-61
2023/06/30 04:58:18;;;;;;;11.70;10.57;;;19.80;99.90;;;;;;5034796;28;20173;-62
2023/06/30 05:00:44;;;;;;;11.80;10.80;;;19.80;99.90;;;;;;5037569;28;20611;-62
2023/06/30 05:03:11;;;;;;;11.87;10.80;;;19.80;99.90;;;;;;5040752;28;20174;-62
2023/06/30 05:05:37;;;;;;;12.30;11.50;;;19.80;99.90;;;;;;5031960;28;20216;-63
2023/06/30 05:08:02;;;;;;;10.47;9.57;;;19.90;99.90;;;;;;5050721;28;20871;-62
2023/06/30 05:10:28;;;;;;;13.17;11.30;;;19.90;99.90;;;;;;5055760;28;20400;-63
2023/06/30 05:12:54;;;;;;;10.27;9.33;;;19.90;99.90;;;;;;5055249;28;20418;-61
2023/06/30 05:15:20;;;;;;;9.83;8.93;;;19.90;99.90;;;;;;5044833;28;20170;-62
2023/06/30 05:17:45;;;;;;;9.83;8.93;;;19.90;99.90;;;;;;5035513;28;20609;-63
2023/06/30 05:20:12;;;;;;;10.53;9.63;;;19.90;99.90;;;;;;5034814;28;20942;-62
2023/06/30 05:22:37;;;;;;;11.33;10.10;;;19.80;99.90;;;;;;5035568;28;20204;-62
2023/06/30 05:25:03;;;;;;;9.77;8.97;;;19.90;99.90;;;;;;5053671;28;20412;-62
2023/06/30 05:27:31;;;;;;;11.70;10.80;;;19.90;99.90;;;;;;5033313;28;20611;-67
2023/06/30 05:29:57;;;;;;;11.37;10.47;;;19.90;99.90;;;;;;5046323;28;20466;-63
2023/06/30 05:32:23;;;;;;;9.93;9.00;;;19.90;99.90;;;;;;5051305;28;20182;-62
2023/06/30 05:34:52;;;;;;;8.50;7.50;;;20.00;99.90;;;;;;5046296;28;20166;-63
2023/06/30 05:37:17;;;;;;;10.07;7.77;;;20.20;99.90;;;;;;5034378;28;20228;-62
2023/06/30 05:39:43;;;;;;;8.27;7.57;;;20.20;99.90;;;;;;5044635;28;20451;-62
2023/06/30 05:42:09;;;;;;;7.50;6.90;;;20.20;99.90;;;;;;5041126;28;20190;-61
2023/06/30 05:44:35;;;;;;;11.53;7.67;;;20.20;99.90;;;;;;5035171;28;20681;-61
2023/06/30 05:47:01;;;;;;;9.07;8.37;;;20.30;99.90;;;;;;5034331;28;20174;-61
2023/06/30 05:49:27;;;;;;;8.23;7.63;;;20.20;99.90;;;;;;5040853;28;20189;-61
2023/06/30 05:51:53;;;;;;;10.37;8.33;;;20.20;99.90;;;;;;5054987;28;20448;-61
2023/06/30 05:54:19;;;;;;;9.63;8.73;;;20.20;99.90;;;;;;5043927;28;20496;-61
2023/06/30 05:56:45;;;;;;;9.40;8.30;;;20.20;99.90;;;;;;5035269;28;20491;-61
2023/06/30 05:59:11;;;;;;;9.70;8.77;;;20.10;99.90;;;;;;5034068;28;20224;-61
2023/06/30 06:01:40;;;;;;;9.50;8.30;;;20.10;99.90;;;;;;5042317;28;20165;-61
2023/06/30 06:04:08;;;;;;;8.70;7.80;;;20.10;99.90;;;;;;5053643;28;20178;-59
2023/06/30 06:06:37;;;;;;;13.40;11.20;;;20.10;99.90;;;;;;5037084;28;20400;-59
2023/06/30 06:09:03;;;;;;;8.40;7.60;;;20.00;99.90;;;;;;5026381;28;20519;-59
2023/06/30 06:11:29;;;;;;;9.10;8.40;;;20.00;99.90;;;;;;5034385;28;20429;-60
2023/06/30 06:13:55;;;;;;;9.73;8.83;;;20.10;99.90;;;;;;5029559;28;20425;-61
2023/06/30 06:16:21;;;;;;;10.20;9.10;;;20.00;99.90;;;;;;5034042;28;20883;-60
2023/06/30 06:18:47;;;;;;;10.13;9.33;;;19.90;99.90;;;;;;5017446;28;20209;-61
2023/06/30 06:21:13;;;;;;;9.83;8.93;;;19.90;99.90;;;;;;5053591;28;20811;-60
2023/06/30 06:23:39;;;;;;;11.43;10.53;;;20.00;99.90;;;;;;5053044;28;20397;-61
2023/06/30 06:26:04;;;;;;;10.00;9.07;;;19.90;99.90;;;;;;5033621;28;20209;-61
2023/06/30 06:28:30;;;;;;;11.30;10.40;;;19.90;99.90;;;;;;5034329;28;20480;-61
2023/06/30 06:30:56;;;;;;;10.23;9.37;;;19.90;99.90;;;;;;5034432;28;20254;-61
2023/06/30 06:33:22;;;;;;;9.93;8.13;;;19.90;99.90;;;;;;5034776;28;20176;-61
2023/06/30 06:35:51;;;;;;;9.13;7.93;;;19.80;99.90;;;;;;5034561;28;20170;-61
2023/06/30 06:38:17;;;;;;;8.73;8.00;;;19.90;99.90;;;;;;5051766;28;20266;-60
2023/06/30 06:40:46;;;;;;;8.43;7.73;;;19.90;99.90;;;;;;5034620;28;20777;-61
2023/06/30 06:43:12;;;;;;;10.90;9.80;;;19.90;99.90;;;;;;5049671;28;20741;-61
2023/06/30 06:45:43;;;;;;;7.80;7.00;;;20.00;99.90;;;;;;5044621;28;20409;-61
2023/06/30 06:48:23;;;;;;;9.30;8.40;;;20.00;99.90;;;;;;5032958;28;20421;-60
2023/06/30 06:50:54;;;;;;;7.63;6.63;;;19.90;99.90;;;;;;5034781;28;22486;-61
2023/06/30 06:53:22;;;;;;;6.50;5.87;;;20.00;99.90;;;;;;5044199;28;20401;-61
2023/06/30 06:55:50;;;;;;;8.67;7.50;;;20.00;99.90;;;;;;5033898;28;20762;-61
2023/06/30 06:58:16;;;;;;;7.87;7.07;;;20.00;99.90;;;;;;5033031;28;20401;-61
2023/06/30 07:00:47;;;;;;;7.03;5.97;;;20.10;99.90;;;;;;5046826;28;20443;-61
2023/06/30 07:03:12;;;;;;;5.43;4.20;;;20.10;99.90;;;;;;5040941;28;20413;-62
2023/06/30 07:05:40;;;;;;;6.53;5.80;;;20.20;99.90;;;;;;5050086;28;20419;-61
2023/06/30 07:08:08;;;;;;;6.57;5.90;;;20.20;99.90;;;;;;5042285;28;20173;-61
2023/06/30 07:10:37;;;;;;;7.90;7.30;;;20.30;99.90;;;;;;5053774;28;20419;-61
2023/06/30 07:13:04;;;;;;;7.10;6.50;;;20.40;99.90;;;;;;5052677;28;20499;-61
2023/06/30 07:15:30;;;;;;;6.37;5.77;;;20.50;99.90;;;;;;5053221;28;20426;-61
2023/06/30 07:17:56;;;;;;;9.90;5.93;;;20.60;99.90;;;;;;5051776;28;20805;-61
2023/06/30 07:20:23;;;;;;;9.63;5.40;;;20.70;99.90;;;;;;5033482;28;20421;-61
2023/06/30 07:22:49;;;;;;;6.23;4.90;;;20.80;99.90;;;;;;5037848;28;20166;-61
2023/06/30 07:25:14;;;;;;;8.07;5.70;;;20.80;99.90;;;;;;5052140;28;20391;-61
2023/06/30 07:27:49;;;;;;;5.00;4.60;;;20.90;99.90;;;;;;5053071;28;20423;-61
2023/06/30 07:30:15;;;;;;;8.33;6.00;;;20.90;99.90;;;;;;5051647;28;20184;-61
2023/06/30 07:32:41;;;;;;;7.13;6.53;;;20.80;99.90;;;;;;5048602;28;20467;-62
2023/06/30 07:35:07;;;;;;;5.70;5.20;;;20.90;99.90;;;;;;5052383;28;20436;-65
2023/06/30 07:37:33;;;;;;;7.90;5.10;;;20.90;99.90;;;;;;5022821;28;20421;-63
2023/06/30 07:39:59;;;;;;;6.93;6.30;;;21.20;99.90;;;;;;5032635;28;20797;-66
2023/06/30 07:42:24;;;;;;;6.43;6.00;;;21.40;99.90;;;;;;5033152;28;20258;-65
2023/06/30 07:44:50;;;;;;;14.80;7.20;;;21.80;99.90;;;;;;5033436;28;20422;-66
2023/06/30 07:47:18;;;;;;;8.90;8.10;;;22.10;99.90;;;;;;5032094;28;20162;-67
2023/06/30 07:49:44;;;;;;;13.90;12.43;;;22.40;99.90;;;;;;5037694;28;20305;-65
2023/06/30 07:52:10;;;;;;;14.33;12.83;;;22.60;99.90;;;;;;5031983;28;20527;-68
2023/06/30 07:54:35;;;;;;;4.87;4.50;;;22.70;99.10;;;;;;5015539;28;20198;-69
2023/06/30 07:57:01;;;;;;;20.37;18.20;;;22.80;97.90;;;;;;5036392;28;20490;-65
2023/06/30 07:59:27;;;;;;;6.47;5.90;;;22.70;97.30;;;;;;5041788;28;20264;-67
2023/06/30 08:01:52;;;;;;;8.70;7.90;;;22.80;97.70;;;;;;5044038;28;20176;-67
2023/06/30 08:04:18;;;;;;;19.67;17.73;;;22.70;96.80;;;;;;5047626;28;20170;-67
2023/06/30 08:06:44;;;;;;;8.17;7.60;;;22.60;98.10;;;;;;5041347;28;20534;-67
2023/06/30 08:09:10;;;;;;;12.23;11.13;;;22.60;97.10;;;;;;5051891;28;20550;-65
2023/06/30 08:11:36;;;;;;;7.83;7.13;;;22.70;97.70;;;;;;5052016;28;20408;-67
2023/06/30 08:14:04;;;;;;;9.40;7.53;;;22.80;96.70;;;;;;5052713;28;20161;-65
2023/06/30 08:16:30;;;;;;;23.60;20.60;;;23.00;95.10;;;;;;5030699;28;20404;-66
2023/06/30 08:18:56;;;;;;;7.23;6.70;;;23.10;95.70;;;;;;5032661;28;20394;-67
2023/06/30 08:21:22;;;;;;;21.07;14.70;;;23.20;93.10;;;;;;5031778;28;20463;-67
2023/06/30 08:23:47;;;;;;;16.70;14.60;;;23.40;96.40;;;;;;5035738;28;20174;-66
2023/06/30 08:26:13;;;;;;;8.97;8.00;;;23.50;94.40;;;;;;5036231;28;20251;-65
2023/06/30 08:28:39;;;;;;;93.80;83.00;;;23.50;93.80;;;;;;5032621;28;20534;-65
2023/06/30 08:31:04;;;;;;;129.77;103.50;;;23.70;92.00;;;;;;5037074;28;20185;-62
2023/06/30 08:33:30;;;;;;;86.47;75.27;;;23.70;91.20;;;;;;5047242;28;20181;-65
2023/06/30 08:35:56;;;;;;;9.60;8.87;;;23.70;91.20;;;;;;5052387;28;20522;-63
2023/06/30 08:38:22;;;;;;;7.13;6.60;;;23.70;90.10;;;;;;5046908;28;20177;-65
2023/06/30 08:40:48;;;;;;;7.70;7.00;;;23.60;91.30;;;;;;5052671;28;20944;-65
2023/06/30 08:43:13;;;;;;;10.33;9.70;;;23.50;90.90;;;;;;5037451;28;20185;-64
2023/06/30 08:45:42;;;;;;;7.57;7.00;;;23.50;91.40;;;;;;5052708;28;20181;-64
2023/06/30 08:48:09;;;;;;;10.00;9.13;;;23.40;90.70;;;;;;5035644;28;20539;-62
2023/06/30 08:50:35;;;;;;;9.30;8.03;;;23.40;91.10;;;;;;5036130;28;20771;-64
2023/06/30 08:53:02;;;;;;;7.73;7.17;;;23.40;92.90;;;;;;5042425;28;20428;-61
2023/06/30 08:55:29;;;;;;;7.43;6.83;;;23.30;92.20;;;;;;5054461;28;20416;-62
2023/06/30 08:57:56;;;;;;;405.20;346.83;;;23.10;90.40;;;;;;5055357;28;20424;-62
2023/06/30 09:00:25;;;;;;;74.43;59.90;;;23.00;90.90;;;;;;5053956;28;20511;-61
2023/06/30 09:02:53;;;;;;;12.67;11.60;;;22.90;90.40;;;;;;5050519;28;20417;-61
2023/06/30 09:05:22;;;;;;;7.20;6.70;;;23.00;91.90;;;;;;5051638;28;20420;-61
2023/06/30 09:07:57;;;;;;;13.97;10.80;;;23.10;91.00;;;;;;5042766;28;20420;-62
2023/06/30 09:10:28;;;;;;;13.60;11.27;;;23.20;94.70;;;;;;5049219;28;20474;-63
2023/06/30 09:12:54;;;;;;;9.33;8.60;;;23.40;94.40;;;;;;5055409;28;20969;-62
2023/06/30 09:15:20;;;;;;;9.97;9.17;;;23.70;92.10;;;;;;5054966;28;20403;-63
2023/06/30 09:17:47;;;;;;;8.00;7.40;;;23.80;90.80;;;;;;5055684;28;20422;-63
2023/06/30 09:20:13;;;;;;;7.43;6.83;;;23.80;90.00;;;;;;5054982;28;20400;-63
2023/06/30 09:22:43;;;;;;;7.27;6.63;;;23.80;90.50;;;;;;5055379;28;20879;-62
2023/06/30 09:25:27;;;;;;;6.93;5.97;;;23.80;90.30;;;;;;5055085;28;20485;-63
2023/06/30 09:27:54;;;;;;;7.30;6.63;;;23.80;89.50;;;;;;5055619;28;20411;-62
2023/06/30 09:30:35;;;;;;;9.10;8.30;;;23.90;88.80;;;;;;5047726;28;20506;-63
2023/06/30 09:33:01;;;;;;;7.13;6.10;;;23.90;87.00;;;;;;5046152;28;20407;-64
2023/06/30 09:35:37;;;;;;;7.73;7.10;;;24.00;85.00;;;;;;5026160;28;20906;-63
2023/06/30 09:38:07;;;;;;;7.77;7.07;;;24.10;83.80;;;;;;5025628;28;20858;-63
2023/06/30 09:40:33;;;;;;;6.17;5.70;;;24.10;82.40;;;;;;5034470;28;20449;-64
2023/06/30 09:42:59;;;;;;;5.07;4.80;;;24.20;81.50;;;;;;5036791;28;20962;-62
2023/06/30 09:45:24;;;;;;;5.53;5.13;;;24.20;80.10;;;;;;5046214;28;20193;-62
2023/06/30 09:47:54;;;;;;;4.47;4.07;;;24.30;79.70;;;;;;5045236;28;20184;-63
2023/06/30 09:50:27;;;;;;;4.93;4.63;;;24.30;78.20;;;;;;5039525;28;20186;-62
2023/06/30 09:52:53;;;;;;;3.63;3.43;;;24.30;77.50;;;;;;5042790;28;20470;-62
2023/06/30 09:55:19;;;;;;;3.87;3.57;;;24.10;76.30;;;;;;5042162;28;20462;-62
2023/06/30 09:57:46;;;;;;;4.57;4.23;;;24.00;77.10;;;;;;5045824;28;20400;-63
2023/06/30 10:00:13;;;;;;;5.33;4.30;;;23.90;76.80;;;;;;5041839;28;20166;-70
2023/06/30 10:02:40;;;;;;;4.33;4.03;;;23.90;77.00;;;;;;5040042;28;20466;-62
2023/06/30 10:05:11;;;;;;;8.53;7.73;;;24.00;77.50;;;;;;5034613;28;20462;-62
2023/06/30 10:07:40;;;;;;;10.33;9.33;;;24.10;76.60;;;;;;5044766;28;20430;-63
2023/06/30 10:10:11;;;;;;;483.43;382.17;;;24.10;77.50;;;;;;5054835;28;20492;-62
2023/06/30 10:12:43;;;;;;;59.33;50.63;;;24.20;78.60;;;;;;5049563;28;20382;-63
2023/06/30 10:15:10;;;;;;;43.17;37.20;;;24.30;78.40;;;;;;5017065;28;20725;-62
2023/06/30 10:17:39;;;;;;;18.23;16.17;;;24.40;77.40;;;;;;5034414;28;20416;-62
2023/06/30 10:20:06;;;;;;;11.93;10.90;;;24.30;77.90;;;;;;5034735;28;20504;-62
2023/06/30 10:22:32;;;;;;;11.57;10.37;;;24.50;78.30;;;;;;5034074;28;21025;-62
2023/06/30 10:24:58;;;;;;;10.27;9.23;;;24.50;79.60;;;;;;5034801;28;20425;-63
2023/06/30 10:27:25;;;;;;;9.10;6.07;;;24.60;77.10;;;;;;5033691;28;20401;-63
2023/06/30 10:29:52;;;;;;;31.80;26.40;;;24.50;76.60;;;;;;5034127;28;20499;-62
2023/06/30 10:32:20;;;;;;;22.27;19.03;;;24.50;85.00;;;;;;5033564;28;20802;-62
2023/06/30 10:34:47;;;;;;;10.67;9.50;;;24.70;84.10;;;;;;5034739;28;20421;-62
2023/06/30 10:37:14;;;;;;;6.67;6.17;;;24.70;79.10;;;;;;5033708;28;20433;-62
2023/06/30 10:39:41;;;;;;;5.77;5.27;;;24.60;78.50;;;;;;5034119;28;20469;-62
2023/06/30 10:42:11;;;;;;;5.40;5.00;;;24.60;77.10;;;;;;5034395;28;20536;-62
2023/06/30 10:44:44;;;;;;;5.90;5.30;;;24.50;77.30;;;;;;5033426;28;20413;-62
2023/06/30 10:47:10;;;;;;;4.23;3.93;;;24.60;78.30;;;;;;5034449;28;20397;-62
2023/06/30 10:49:38;;;;;;;6.33;5.93;;;24.50;75.00;;;;;;5040101;28;20460;-62
2023/06/30 10:52:08;;;;;;;4.30;4.00;;;24.40;74.80;;;;;;5041733;28;20260;-64
2023/06/30 10:54:42;;;;;;;4.87;4.47;;;24.30;74.60;;;;;;5032961;28;20477;-66
2023/06/30 10:57:07;;;;;;;3.40;3.20;;;24.20;75.50;;;;;;5041844;28;20741;-66
2023/06/30 10:59:40;;;;;;;3.53;3.43;;;24.30;75.30;;;;;;5051226;28;20427;-66
2023/06/30 11:02:13;;;;;;;3.80;3.60;;;24.30;74.10;;;;;;5053939;28;20193;-66
2023/06/30 11:04:43;;;;;;;4.40;4.07;;;24.40;74.50;;;;;;5035100;28;20495;-66
2023/06/30 11:07:10;;;;;;;3.93;3.73;;;24.50;74.40;;;;;;5036103;28;20466;-66
2023/06/30 11:09:48;;;;;;;4.40;4.10;;;24.60;75.50;;;;;;5052792;28;20475;-66
2023/06/30 11:12:18;;;;;;;4.80;4.50;;;24.80;75.20;;;;;;5053183;28;20512;-67
2023/06/30 11:14:54;;;;;;;5.20;4.80;;;24.80;74.00;;;;;;5053563;28;20408;-66
2023/06/30 11:17:20;;;;;;;4.73;4.40;;;24.90;73.90;;;;;;5053169;28;20411;-66
2023/06/30 11:20:00;;;;;;;3.90;3.60;;;24.80;72.80;;;;;;5021426;28;20487;-66
2023/06/30 11:22:30;;;;;;;3.97;3.67;;;24.80;72.90;;;;;;5032800;28;20166;-66
2023/06/30 11:24:56;;;;;;;3.77;3.57;;;24.70;72.60;;;;;;5033334;28;20900;-66
2023/06/30 11:27:22;;;;;;;3.60;3.40;;;24.60;72.30;;;;;;5032705;28;20484;-66
2023/06/30 11:29:49;;;;;;;3.67;3.40;;;24.40;71.60;;;;;;5033311;28;20292;-66
2023/06/30 11:32:28;;;;;;;3.67;3.47;;;24.20;70.80;;;;;;5032903;28;20416;-73
2023/06/30 11:34:59;;;;;;;3.60;3.30;;;24.10;70.20;;;;;;5033158;28;20421;-67
2023/06/30 11:37:26;;;;;;;3.47;3.27;;;24.10;71.10;;;;;;5032377;28;20405;-67
2023/06/30 11:39:57;;;;;;;3.87;3.53;;;24.10;72.50;;;;;;5032809;28;20441;-67
2023/06/30 11:42:23;;;;;;;3.77;3.57;;;24.20;73.00;;;;;;5032717;28;20425;-67
2023/06/30 11:44:49;;;;;;;4.00;3.80;;;24.10;72.20;;;;;;5015441;28;20758;-67
2023/06/30 11:47:16;;;;;;;3.47;3.20;;;24.10;71.90;;;;;;5032951;28;20564;-73
2023/06/30 11:49:42;;;;;;;3.17;2.97;;;24.10;72.10;;;;;;5031983;28;20461;-67
2023/06/30 11:52:09;;;;;;;3.33;3.20;;;24.10;71.70;;;;;;5015291;28;20923;-66
2023/06/30 11:54:39;;;;;;;3.23;3.13;;;24.20;71.70;;;;;;5041956;28;20181;-67
2023/06/30 11:57:05;;;;;;;2.83;2.50;;;24.10;71.10;;;;;;5052673;28;20545;-67
2023/06/30 11:59:31;;;;;;;2.37;2.27;;;24.00;70.90;;;;;;5052131;28;20487;-67
2023/06/30 12:01:57;;;;;;;3.90;3.57;;;23.90;70.40;;;;;;5040001;28;20248;-67
2023/06/30 12:04:28;;;;;;;3.50;3.30;;;23.80;70.40;;;;;;5031917;28;20405;-68
2023/06/30 12:06:56;;;;;;;2.83;2.60;;;23.90;71.00;;;;;;5032925;28;20411;-67
2023/06/30 12:09:22;;;;;;;4.93;2.83;;;23.90;70.20;;;;;;5013806;28;20483;-67
2023/06/30 12:11:49;;;;;;;3.73;3.43;;;23.90;70.30;;;;;;5032456;28;20405;-67
2023/06/30 12:14:16;;;;;;;3.80;3.37;;;23.90;70.40;;;;;;5034655;28;20170;-67
2023/06/30 12:16:48;;;;;;;2.60;2.50;;;24.00;70.30;;;;;;5051274;28;20432;-67
2023/06/30 12:19:14;;;;;;;2.80;2.37;;;24.00;70.10;;;;;;5050618;28;20432;-67
2023/06/30 12:22:00;;;;;;;3.73;3.10;;;24.00;70.50;;;;;;5051686;28;20404;-67
2023/06/30 12:24:31;;;;;;;3.03;2.83;;;24.10;69.60;;;;;;5031564;28;20455;-67
2023/06/30 12:26:57;;;;;;;3.00;2.87;;;24.10;70.80;;;;;;5032356;28;20395;-67
2023/06/30 12:29:23;;;;;;;3.40;3.30;;;24.10;69.20;;;;;;5031649;28;20456;-67
2023/06/30 12:31:49;;;;;;;3.30;2.60;;;24.10;68.90;;;;;;5032440;28;20170;-67
2023/06/30 12:34:34;;;;;;;5.23;4.93;;;24.10;68.60;;;;;;5031950;28;20257;-67
2023/06/30 12:37:01;;;;;;;3.60;3.40;;;24.30;70.20;;;;;;5032671;28;20765;-67
2023/06/30 12:39:28;;;;;;;3.77;3.50;;;24.50;69.10;;;;;;5031749;28;20453;-67
2023/06/30 12:41:53;;;;;;;3.60;3.30;;;24.40;68.70;;;;;;5032230;28;20427;-67
2023/06/30 12:44:20;;;;;;;3.93;3.63;;;24.40;69.60;;;;;;5032098;28;20385;-74